Kilgetty, United Kingdom
Current Conditions -  °F | °C
As of 9:50 AM on Saturday 25 Oct 2014 (Local Time) from EGOP Reporting Station
Broken Clouds Broken Clouds  
Wind Chill: 13°   Ceiling: 4500
Heat Index: 13°   Visibility: 6mi
Dew Point: 11°   Wind: 20mph
Humidity: 88%   Direction: 220°SW
Pressure: 30"   Gusts: NA
Location:  51.73°N, 4.76°W
Report Text: EGOP 250850Z AUTO 22017KT 9999 // BKN045/// 13/11 Q1016
Loading
Personal Weather Stations






























Interactive Weather Map
Tropical Storm Tracking
New forecast layout! Learn more

10-Day Weather Forecast

Advertisements
Track Severe Weather on mobile